sensor_id;sensor_type;location;lat;lon;timestamp;P1;durP1;ratioP1;P2;durP2;ratioP2
16922;SDS011;8578;50.938;13.556;2023-01-23T00:01:27;21.20;;;7.73;;
16922;SDS011;8578;50.938;13.556;2023-01-23T00:03:54;44.83;;;9.07;;
16922;SDS011;8578;50.938;13.556;2023-01-23T00:06:22;23.63;;;8.10;;
16922;SDS011;8578;50.938;13.556;2023-01-23T00:08:50;22.97;;;8.90;;
16922;SDS011;8578;50.938;13.556;2023-01-23T00:11:18;28.30;;;9.43;;
16922;SDS011;8578;50.938;13.556;2023-01-23T00:13:46;22.80;;;8.80;;
16922;SDS011;8578;50.938;13.556;2023-01-23T00:16:15;40.23;;;9.50;;
16922;SDS011;8578;50.938;13.556;2023-01-23T00:18:44;18.93;;;8.60;;
16922;SDS011;8578;50.938;13.556;2023-01-23T00:21:13;134.93;;;11.53;;
16922;SDS011;8578;50.938;13.556;2023-01-23T00:23:40;54.90;;;9.07;;
16922;SDS011;8578;50.938;13.556;2023-01-23T00:26:09;99.60;;;10.47;;
16922;SDS011;8578;50.938;13.556;2023-01-23T00:28:38;75.60;;;10.00;;
16922;SDS011;8578;50.938;13.556;2023-01-23T00:31:06;23.53;;;8.37;;
16922;SDS011;8578;50.938;13.556;2023-01-23T00:33:34;26.57;;;8.07;;
16922;SDS011;8578;50.938;13.556;2023-01-23T00:36:03;51.67;;;9.00;;
16922;SDS011;8578;50.938;13.556;2023-01-23T00:38:31;33.20;;;9.00;;
16922;SDS011;8578;50.938;13.556;2023-01-23T00:40:58;68.10;;;9.10;;
16922;SDS011;8578;50.938;13.556;2023-01-23T00:43:27;137.40;;;11.00;;
16922;SDS011;8578;50.938;13.556;2023-01-23T00:45:56;76.80;;;9.00;;
16922;SDS011;8578;50.938;13.556;2023-01-23T00:48:23;65.53;;;9.20;;
16922;SDS011;8578;50.938;13.556;2023-01-23T00:50:51;172.50;;;11.53;;
16922;SDS011;8578;50.938;13.556;2023-01-23T00:53:20;55.33;;;8.87;;
16922;SDS011;8578;50.938;13.556;2023-01-23T00:55:47;74.00;;;9.93;;
16922;SDS011;8578;50.938;13.556;2023-01-23T00:58:14;128.60;;;10.50;;
16922;SDS011;8578;50.938;13.556;2023-01-23T01:00:43;86.43;;;8.87;;
16922;SDS011;8578;50.938;13.556;2023-01-23T01:03:11;86.23;;;9.43;;
16922;SDS011;8578;50.938;13.556;2023-01-23T01:05:40;87.87;;;9.37;;
16922;SDS011;8578;50.938;13.556;2023-01-23T01:08:08;41.63;;;8.43;;
16922;SDS011;8578;50.938;13.556;2023-01-23T01:10:36;83.97;;;9.50;;
16922;SDS011;8578;50.938;13.556;2023-01-23T01:13:06;78.83;;;9.00;;
16922;SDS011;8578;50.938;13.556;2023-01-23T01:15:33;57.17;;;8.30;;
16922;SDS011;8578;50.938;13.556;2023-01-23T01:18:01;42.60;;;8.63;;
16922;SDS011;8578;50.938;13.556;2023-01-23T01:20:28;98.83;;;10.23;;
16922;SDS011;8578;50.938;13.556;2023-01-23T01:22:56;79.60;;;9.93;;
16922;SDS011;8578;50.938;13.556;2023-01-23T01:25:24;153.93;;;10.50;;
16922;SDS011;8578;50.938;13.556;2023-01-23T01:27:54;90.73;;;9.60;;
16922;SDS011;8578;50.938;13.556;2023-01-23T01:30:22;109.33;;;9.90;;
16922;SDS011;8578;50.938;13.556;2023-01-23T01:32:51;53.80;;;9.63;;
16922;SDS011;8578;50.938;13.556;2023-01-23T01:35:19;139.00;;;10.77;;
16922;SDS011;8578;50.938;13.556;2023-01-23T01:37:46;48.10;;;8.70;;
16922;SDS011;8578;50.938;13.556;2023-01-23T01:40:15;39.50;;;8.53;;
16922;SDS011;8578;50.938;13.556;2023-01-23T01:42:43;72.07;;;8.47;;
16922;SDS011;8578;50.938;13.556;2023-01-23T01:48:01;162.93;;;12.33;;
16922;SDS011;8578;50.938;13.556;2023-01-23T01:50:28;92.70;;;9.03;;
16922;SDS011;8578;50.938;13.556;2023-01-23T01:52:56;58.97;;;8.17;;
16922;SDS011;8578;50.938;13.556;2023-01-23T01:55:23;53.20;;;9.07;;
16922;SDS011;8578;50.938;13.556;2023-01-23T01:57:50;48.73;;;8.30;;
16922;SDS011;8578;50.938;13.556;2023-01-23T02:00:19;31.60;;;7.67;;
16922;SDS011;8578;50.938;13.556;2023-01-23T02:02:48;77.63;;;9.67;;
16922;SDS011;8578;50.938;13.556;2023-01-23T02:05:20;63.80;;;8.70;;
16922;SDS011;8578;50.938;13.556;2023-01-23T02:07:50;117.70;;;10.03;;
16922;SDS011;8578;50.938;13.556;2023-01-23T02:10:20;57.20;;;8.93;;
16922;SDS011;8578;50.938;13.556;2023-01-23T02:12:48;45.63;;;7.60;;
16922;SDS011;8578;50.938;13.556;2023-01-23T02:15:16;95.47;;;9.03;;
16922;SDS011;8578;50.938;13.556;2023-01-23T02:17:44;26.17;;;7.37;;
16922;SDS011;8578;50.938;13.556;2023-01-23T02:20:14;80.13;;;8.30;;
16922;SDS011;8578;50.938;13.556;2023-01-23T02:22:46;81.80;;;8.80;;
16922;SDS011;8578;50.938;13.556;2023-01-23T02:25:17;40.00;;;7.63;;
16922;SDS011;8578;50.938;13.556;2023-01-23T02:27:49;31.33;;;7.87;;
16922;SDS011;8578;50.938;13.556;2023-01-23T02:30:17;75.07;;;8.53;;
16922;SDS011;8578;50.938;13.556;2023-01-23T02:32:47;32.10;;;8.03;;
16922;SDS011;8578;50.938;13.556;2023-01-23T02:35:17;39.90;;;7.87;;
16922;SDS011;8578;50.938;13.556;2023-01-23T02:37:47;116.03;;;9.20;;
16922;SDS011;8578;50.938;13.556;2023-01-23T02:40:18;51.33;;;8.60;;
16922;SDS011;8578;50.938;13.556;2023-01-23T02:42:47;165.97;;;11.50;;
16922;SDS011;8578;50.938;13.556;2023-01-23T02:45:17;22.40;;;8.13;;
16922;SDS011;8578;50.938;13.556;2023-01-23T02:47:45;75.73;;;9.17;;
16922;SDS011;8578;50.938;13.556;2023-01-23T02:50:14;89.57;;;9.57;;
16922;SDS011;8578;50.938;13.556;2023-01-23T02:52:41;70.47;;;9.23;;
16922;SDS011;8578;50.938;13.556;2023-01-23T02:55:11;81.67;;;9.00;;
16922;SDS011;8578;50.938;13.556;2023-01-23T02:57:38;73.53;;;8.67;;
16922;SDS011;8578;50.938;13.556;2023-01-23T03:00:06;112.90;;;10.00;;
16922;SDS011;8578;50.938;13.556;2023-01-23T03:02:44;100.60;;;9.23;;
16922;SDS011;8578;50.938;13.556;2023-01-23T03:05:12;83.27;;;9.13;;
16922;SDS011;8578;50.938;13.556;2023-01-23T03:07:39;99.10;;;9.03;;
16922;SDS011;8578;50.938;13.556;2023-01-23T03:10:09;166.90;;;9.90;;
16922;SDS011;8578;50.938;13.556;2023-01-23T03:12:40;171.43;;;13.47;;
16922;SDS011;8578;50.938;13.556;2023-01-23T03:15:09;132.33;;;10.83;;
16922;SDS011;8578;50.938;13.556;2023-01-23T03:17:36;90.07;;;8.53;;
16922;SDS011;8578;50.938;13.556;2023-01-23T03:20:06;28.90;;;7.07;;
16922;SDS011;8578;50.938;13.556;2023-01-23T03:22:33;23.03;;;7.00;;
16922;SDS011;8578;50.938;13.556;2023-01-23T03:25:01;36.93;;;7.43;;
16922;SDS011;8578;50.938;13.556;2023-01-23T03:27:29;85.57;;;10.00;;
16922;SDS011;8578;50.938;13.556;2023-01-23T03:29:58;33.53;;;7.93;;
16922;SDS011;8578;50.938;13.556;2023-01-23T03:32:41;35.27;;;7.93;;
16922;SDS011;8578;50.938;13.556;2023-01-23T03:35:11;139.30;;;10.27;;
16922;SDS011;8578;50.938;13.556;2023-01-23T03:37:42;94.43;;;8.80;;
16922;SDS011;8578;50.938;13.556;2023-01-23T03:40:11;58.30;;;8.23;;
16922;SDS011;8578;50.938;13.556;2023-01-23T03:42:59;45.70;;;7.93;;
16922;SDS011;8578;50.938;13.556;2023-01-23T03:45:27;130.73;;;10.80;;
16922;SDS011;8578;50.938;13.556;2023-01-23T03:47:55;60.83;;;9.47;;
16922;SDS011;8578;50.938;13.556;2023-01-23T03:50:23;40.20;;;8.83;;
16922;SDS011;8578;50.938;13.556;2023-01-23T03:52:51;55.10;;;8.33;;
16922;SDS011;8578;50.938;13.556;2023-01-23T03:55:19;94.73;;;10.17;;
16922;SDS011;8578;50.938;13.556;2023-01-23T03:57:46;59.67;;;8.30;;
16922;SDS011;8578;50.938;13.556;2023-01-23T04:00:16;56.33;;;8.23;;
16922;SDS011;8578;50.938;13.556;2023-01-23T04:02:53;71.70;;;8.97;;
16922;SDS011;8578;50.938;13.556;2023-01-23T04:05:21;63.67;;;9.50;;
16922;SDS011;8578;50.938;13.556;2023-01-23T04:07:49;51.87;;;8.47;;
16922;SDS011;8578;50.938;13.556;2023-01-23T04:10:17;47.93;;;7.83;;
16922;SDS011;8578;50.938;13.556;2023-01-23T04:12:50;53.33;;;8.97;;
16922;SDS011;8578;50.938;13.556;2023-01-23T04:15:18;53.73;;;8.20;;
16922;SDS011;8578;50.938;13.556;2023-01-23T04:17:47;34.70;;;8.03;;
16922;SDS011;8578;50.938;13.556;2023-01-23T04:20:15;31.00;;;7.93;;
16922;SDS011;8578;50.938;13.556;2023-01-23T04:22:43;66.67;;;9.20;;
16922;SDS011;8578;50.938;13.556;2023-01-23T04:25:11;50.60;;;9.47;;
16922;SDS011;8578;50.938;13.556;2023-01-23T04:27:39;40.03;;;8.17;;
16922;SDS011;8578;50.938;13.556;2023-01-23T04:30:09;42.80;;;8.93;;
16922;SDS011;8578;50.938;13.556;2023-01-23T04:32:36;37.23;;;8.33;;
16922;SDS011;8578;50.938;13.556;2023-01-23T04:35:04;37.80;;;7.33;;
16922;SDS011;8578;50.938;13.556;2023-01-23T04:37:35;41.13;;;8.37;;
16922;SDS011;8578;50.938;13.556;2023-01-23T04:40:02;41.30;;;8.63;;
16922;SDS011;8578;50.938;13.556;2023-01-23T04:42:40;53.73;;;8.30;;
16922;SDS011;8578;50.938;13.556;2023-01-23T04:45:24;48.20;;;9.03;;
16922;SDS011;8578;50.938;13.556;2023-01-23T04:48:11;30.37;;;7.83;;
16922;SDS011;8578;50.938;13.556;2023-01-23T04:50:39;79.57;;;8.77;;
16922;SDS011;8578;50.938;13.556;2023-01-23T04:53:06;30.13;;;8.50;;
16922;SDS011;8578;50.938;13.556;2023-01-23T04:55:34;44.87;;;7.57;;
16922;SDS011;8578;50.938;13.556;2023-01-23T04:58:06;49.50;;;8.43;;
16922;SDS011;8578;50.938;13.556;2023-01-23T05:00:36;37.00;;;8.23;;
16922;SDS011;8578;50.938;13.556;2023-01-23T05:03:04;64.70;;;9.53;;
16922;SDS011;8578;50.938;13.556;2023-01-23T05:05:31;45.37;;;8.70;;
16922;SDS011;8578;50.938;13.556;2023-01-23T05:08:00;104.50;;;10.03;;
16922;SDS011;8578;50.938;13.556;2023-01-23T05:10:28;63.60;;;9.10;;
16922;SDS011;8578;50.938;13.556;2023-01-23T05:13:01;108.00;;;10.33;;
16922;SDS011;8578;50.938;13.556;2023-01-23T05:15:30;27.67;;;8.10;;
16922;SDS011;8578;50.938;13.556;2023-01-23T05:17:58;34.43;;;9.87;;
16922;SDS011;8578;50.938;13.556;2023-01-23T05:20:26;38.60;;;11.70;;
16922;SDS011;8578;50.938;13.556;2023-01-23T05:22:58;44.13;;;8.10;;
16922;SDS011;8578;50.938;13.556;2023-01-23T05:25:34;35.73;;;8.73;;
16922;SDS011;8578;50.938;13.556;2023-01-23T05:28:02;59.17;;;10.13;;
16922;SDS011;8578;50.938;13.556;2023-01-23T05:30:32;23.57;;;8.47;;
16922;SDS011;8578;50.938;13.556;2023-01-23T05:33:14;31.43;;;8.83;;
16922;SDS011;8578;50.938;13.556;2023-01-23T05:35:41;23.60;;;8.40;;
16922;SDS011;8578;50.938;13.556;2023-01-23T05:38:10;40.47;;;10.00;;
16922;SDS011;8578;50.938;13.556;2023-01-23T05:40:38;36.30;;;8.83;;
16922;SDS011;8578;50.938;13.556;2023-01-23T05:43:31;53.13;;;9.30;;
16922;SDS011;8578;50.938;13.556;2023-01-23T05:46:20;37.57;;;8.80;;
16922;SDS011;8578;50.938;13.556;2023-01-23T05:48:50;49.73;;;9.97;;
16922;SDS011;8578;50.938;13.556;2023-01-23T05:51:19;73.33;;;8.87;;
16922;SDS011;8578;50.938;13.556;2023-01-23T05:53:48;38.70;;;8.40;;
16922;SDS011;8578;50.938;13.556;2023-01-23T05:56:16;28.80;;;8.53;;
16922;SDS011;8578;50.938;13.556;2023-01-23T05:59:13;66.07;;;10.60;;
16922;SDS011;8578;50.938;13.556;2023-01-23T06:01:47;54.87;;;9.80;;
16922;SDS011;8578;50.938;13.556;2023-01-23T06:04:33;71.50;;;10.20;;
16922;SDS011;8578;50.938;13.556;2023-01-23T06:07:16;70.47;;;8.80;;
16922;SDS011;8578;50.938;13.556;2023-01-23T06:09:46;103.37;;;10.43;;
16922;SDS011;8578;50.938;13.556;2023-01-23T06:12:13;136.30;;;10.53;;
16922;SDS011;8578;50.938;13.556;2023-01-23T06:14:42;71.53;;;8.63;;
16922;SDS011;8578;50.938;13.556;2023-01-23T06:17:11;53.57;;;8.60;;
16922;SDS011;8578;50.938;13.556;2023-01-23T06:19:39;71.63;;;9.00;;
16922;SDS011;8578;50.938;13.556;2023-01-23T06:22:08;73.40;;;9.17;;
16922;SDS011;8578;50.938;13.556;2023-01-23T06:24:54;105.77;;;9.80;;
16922;SDS011;8578;50.938;13.556;2023-01-23T06:27:23;35.47;;;8.30;;
16922;SDS011;8578;50.938;13.556;2023-01-23T06:29:51;77.73;;;9.50;;
16922;SDS011;8578;50.938;13.556;2023-01-23T06:32:20;63.37;;;8.80;;
16922;SDS011;8578;50.938;13.556;2023-01-23T06:34:50;33.50;;;7.80;;
16922;SDS011;8578;50.938;13.556;2023-01-23T06:37:17;44.53;;;8.17;;
16922;SDS011;8578;50.938;13.556;2023-01-23T06:39:45;19.40;;;8.07;;
16922;SDS011;8578;50.938;13.556;2023-01-23T06:42:14;53.80;;;8.90;;
16922;SDS011;8578;50.938;13.556;2023-01-23T06:44:46;56.47;;;9.33;;
16922;SDS011;8578;50.938;13.556;2023-01-23T06:47:14;174.17;;;13.43;;
16922;SDS011;8578;50.938;13.556;2023-01-23T06:49:45;50.37;;;8.97;;
16922;SDS011;8578;50.938;13.556;2023-01-23T06:52:12;58.50;;;10.43;;
16922;SDS011;8578;50.938;13.556;2023-01-23T06:54:41;111.20;;;11.40;;
16922;SDS011;8578;50.938;13.556;2023-01-23T06:57:09;77.10;;;10.10;;
16922;SDS011;8578;50.938;13.556;2023-01-23T06:59:38;166.50;;;12.43;;
16922;SDS011;8578;50.938;13.556;2023-01-23T07:02:08;65.37;;;10.37;;
16922;SDS011;8578;50.938;13.556;2023-01-23T07:04:42;146.67;;;12.00;;
16922;SDS011;8578;50.938;13.556;2023-01-23T07:07:11;139.47;;;12.83;;
16922;SDS011;8578;50.938;13.556;2023-01-23T07:09:40;32.10;;;9.03;;
16922;SDS011;8578;50.938;13.556;2023-01-23T07:12:14;78.93;;;10.33;;
16922;SDS011;8578;50.938;13.556;2023-01-23T07:14:42;90.83;;;10.80;;
16922;SDS011;8578;50.938;13.556;2023-01-23T07:17:12;41.37;;;9.37;;
16922;SDS011;8578;50.938;13.556;2023-01-23T07:19:40;107.50;;;12.07;;
16922;SDS011;8578;50.938;13.556;2023-01-23T07:22:15;91.80;;;13.03;;
16922;SDS011;8578;50.938;13.556;2023-01-23T07:24:42;36.50;;;11.00;;
16922;SDS011;8578;50.938;13.556;2023-01-23T07:27:10;76.23;;;11.53;;
16922;SDS011;8578;50.938;13.556;2023-01-23T07:29:37;26.97;;;9.53;;
16922;SDS011;8578;50.938;13.556;2023-01-23T07:32:05;45.00;;;13.97;;
16922;SDS011;8578;50.938;13.556;2023-01-23T07:34:36;85.73;;;17.57;;
16922;SDS011;8578;50.938;13.556;2023-01-23T07:37:03;103.83;;;23.83;;
16922;SDS011;8578;50.938;13.556;2023-01-23T07:39:32;76.23;;;25.73;;
16922;SDS011;8578;50.938;13.556;2023-01-23T07:41:59;61.10;;;13.27;;
16922;SDS011;8578;50.938;13.556;2023-01-23T07:44:27;66.87;;;13.27;;
16922;SDS011;8578;50.938;13.556;2023-01-23T07:46:55;42.87;;;10.40;;
16922;SDS011;8578;50.938;13.556;2023-01-23T07:49:22;86.40;;;10.50;;
16922;SDS011;8578;50.938;13.556;2023-01-23T07:51:50;60.03;;;10.70;;
16922;SDS011;8578;50.938;13.556;2023-01-23T07:54:17;68.57;;;10.63;;
16922;SDS011;8578;50.938;13.556;2023-01-23T07:56:47;66.87;;;10.03;;
16922;SDS011;8578;50.938;13.556;2023-01-23T07:59:14;20.63;;;9.37;;
16922;SDS011;8578;50.938;13.556;2023-01-23T08:01:42;61.80;;;10.37;;
16922;SDS011;8578;50.938;13.556;2023-01-23T08:04:09;101.80;;;10.53;;
16922;SDS011;8578;50.938;13.556;2023-01-23T08:06:37;133.07;;;12.57;;
16922;SDS011;8578;50.938;13.556;2023-01-23T08:09:04;34.23;;;9.53;;
16922;SDS011;8578;50.938;13.556;2023-01-23T08:11:31;79.27;;;9.77;;
16922;SDS011;8578;50.938;13.556;2023-01-23T08:14:01;36.03;;;9.40;;
16922;SDS011;8578;50.938;13.556;2023-01-23T08:16:28;48.20;;;9.90;;
16922;SDS011;8578;50.938;13.556;2023-01-23T08:18:56;64.63;;;9.80;;
16922;SDS011;8578;50.938;13.556;2023-01-23T08:21:23;35.40;;;9.10;;
16922;SDS011;8578;50.938;13.556;2023-01-23T08:23:51;25.97;;;9.63;;
16922;SDS011;8578;50.938;13.556;2023-01-23T08:26:18;42.93;;;9.83;;
16922;SDS011;8578;50.938;13.556;2023-01-23T08:28:46;44.77;;;9.47;;
16922;SDS011;8578;50.938;13.556;2023-01-23T08:31:15;25.93;;;10.30;;
16922;SDS011;8578;50.938;13.556;2023-01-23T08:33:42;52.40;;;9.87;;
16922;SDS011;8578;50.938;13.556;2023-01-23T08:36:10;34.27;;;10.23;;
16922;SDS011;8578;50.938;13.556;2023-01-23T08:38:38;43.37;;;9.90;;
16922;SDS011;8578;50.938;13.556;2023-01-23T08:41:05;47.80;;;11.77;;
16922;SDS011;8578;50.938;13.556;2023-01-23T08:43:35;35.33;;;10.27;;
16922;SDS011;8578;50.938;13.556;2023-01-23T08:46:02;35.60;;;11.13;;
16922;SDS011;8578;50.938;13.556;2023-01-23T08:48:31;36.70;;;10.57;;
16922;SDS011;8578;50.938;13.556;2023-01-23T08:51:00;31.13;;;9.70;;
16922;SDS011;8578;50.938;13.556;2023-01-23T08:53:28;25.13;;;9.27;;
16922;SDS011;8578;50.938;13.556;2023-01-23T08:55:57;45.77;;;8.90;;
16922;SDS011;8578;50.938;13.556;2023-01-23T08:58:25;34.03;;;10.47;;
16922;SDS011;8578;50.938;13.556;2023-01-23T09:00:52;33.30;;;9.83;;
16922;SDS011;8578;50.938;13.556;2023-01-23T09:03:19;39.37;;;11.50;;
16922;SDS011;8578;50.938;13.556;2023-01-23T09:05:48;72.77;;;10.10;;
16922;SDS011;8578;50.938;13.556;2023-01-23T09:08:16;50.10;;;9.67;;
16922;SDS011;8578;50.938;13.556;2023-01-23T09:10:43;28.63;;;9.40;;
16922;SDS011;8578;50.938;13.556;2023-01-23T09:13:10;63.17;;;11.17;;
16922;SDS011;8578;50.938;13.556;2023-01-23T09:15:38;36.90;;;11.37;;
16922;SDS011;8578;50.938;13.556;2023-01-23T09:18:06;36.30;;;10.63;;
16922;SDS011;8578;50.938;13.556;2023-01-23T09:20:33;36.40;;;11.03;;
16922;SDS011;8578;50.938;13.556;2023-01-23T09:23:02;32.37;;;10.57;;
16922;SDS011;8578;50.938;13.556;2023-01-23T09:25:29;45.30;;;9.93;;
16922;SDS011;8578;50.938;13.556;2023-01-23T09:27:57;76.80;;;11.37;;
16922;SDS011;8578;50.938;13.556;2023-01-23T09:30:24;89.60;;;11.90;;
16922;SDS011;8578;50.938;13.556;2023-01-23T09:32:52;186.03;;;15.60;;
16922;SDS011;8578;50.938;13.556;2023-01-23T09:35:19;94.53;;;11.70;;
16922;SDS011;8578;50.938;13.556;2023-01-23T09:37:48;191.60;;;14.93;;
16922;SDS011;8578;50.938;13.556;2023-01-23T09:40:31;131.57;;;12.00;;
16922;SDS011;8578;50.938;13.556;2023-01-23T09:43:00;142.80;;;11.97;;
16922;SDS011;8578;50.938;13.556;2023-01-23T09:45:33;180.97;;;14.10;;
16922;SDS011;8578;50.938;13.556;2023-01-23T09:48:05;142.83;;;12.30;;
16922;SDS011;8578;50.938;13.556;2023-01-23T09:50:36;87.37;;;10.90;;
16922;SDS011;8578;50.938;13.556;2023-01-23T09:53:07;143.53;;;14.27;;
16922;SDS011;8578;50.938;13.556;2023-01-23T09:55:40;168.30;;;13.53;;
16922;SDS011;8578;50.938;13.556;2023-01-23T09:58:10;141.83;;;12.90;;
16922;SDS011;8578;50.938;13.556;2023-01-23T10:00:41;134.40;;;12.87;;
16922;SDS011;8578;50.938;13.556;2023-01-23T10:03:10;82.53;;;12.03;;
16922;SDS011;8578;50.938;13.556;2023-01-23T10:05:40;98.70;;;12.87;;
16922;SDS011;8578;50.938;13.556;2023-01-23T10:08:13;39.47;;;12.17;;
16922;SDS011;8578;50.938;13.556;2023-01-23T10:10:54;45.67;;;9.90;;
16922;SDS011;8578;50.938;13.556;2023-01-23T10:13:28;41.20;;;11.90;;
16922;SDS011;8578;50.938;13.556;2023-01-23T10:16:03;43.93;;;11.77;;
16922;SDS011;8578;50.938;13.556;2023-01-23T10:18:34;51.50;;;11.10;;
16922;SDS011;8578;50.938;13.556;2023-01-23T10:21:06;81.70;;;11.57;;
16922;SDS011;8578;50.938;13.556;2023-01-23T10:23:39;77.87;;;10.83;;
16922;SDS011;8578;50.938;13.556;2023-01-23T10:26:11;68.77;;;10.43;;
16922;SDS011;8578;50.938;13.556;2023-01-23T10:28:38;51.53;;;11.57;;
16922;SDS011;8578;50.938;13.556;2023-01-23T10:31:09;39.27;;;13.10;;
16922;SDS011;8578;50.938;13.556;2023-01-23T10:33:39;59.70;;;12.93;;
16922;SDS011;8578;50.938;13.556;2023-01-23T10:36:12;91.13;;;11.17;;
16922;SDS011;8578;50.938;13.556;2023-01-23T10:38:53;53.80;;;10.27;;
16922;SDS011;8578;50.938;13.556;2023-01-23T10:41:24;43.77;;;12.40;;
16922;SDS011;8578;50.938;13.556;2023-01-23T10:43:52;41.40;;;12.30;;
16922;SDS011;8578;50.938;13.556;2023-01-23T10:46:21;37.83;;;13.07;;
16922;SDS011;8578;50.938;13.556;2023-01-23T10:48:53;42.97;;;12.03;;
16922;SDS011;8578;50.938;13.556;2023-01-23T10:51:28;38.20;;;12.93;;
16922;SDS011;8578;50.938;13.556;2023-01-23T10:54:00;45.23;;;13.40;;
16922;SDS011;8578;50.938;13.556;2023-01-23T10:56:33;96.03;;;13.37;;
16922;SDS011;8578;50.938;13.556;2023-01-23T10:59:02;41.27;;;11.87;;
16922;SDS011;8578;50.938;13.556;2023-01-23T11:01:31;53.10;;;13.13;;
16922;SDS011;8578;50.938;13.556;2023-01-23T11:04:08;122.70;;;12.97;;
16922;SDS011;8578;50.938;13.556;2023-01-23T11:06:35;74.57;;;10.27;;
16922;SDS011;8578;50.938;13.556;2023-01-23T11:09:03;42.30;;;12.27;;
16922;SDS011;8578;50.938;13.556;2023-01-23T11:11:31;48.47;;;12.43;;
16922;SDS011;8578;50.938;13.556;2023-01-23T11:14:04;39.33;;;11.87;;
16922;SDS011;8578;50.938;13.556;2023-01-23T11:16:32;101.83;;;12.73;;
16922;SDS011;8578;50.938;13.556;2023-01-23T11:19:07;42.73;;;12.20;;
16922;SDS011;8578;50.938;13.556;2023-01-23T11:21:37;97.07;;;10.60;;
16922;SDS011;8578;50.938;13.556;2023-01-23T11:24:08;48.07;;;12.63;;
16922;SDS011;8578;50.938;13.556;2023-01-23T11:26:38;206.67;;;13.37;;
16922;SDS011;8578;50.938;13.556;2023-01-23T11:29:22;59.73;;;12.53;;
16922;SDS011;8578;50.938;13.556;2023-01-23T11:31:50;118.60;;;11.50;;
16922;SDS011;8578;50.938;13.556;2023-01-23T11:34:20;75.07;;;12.00;;
16922;SDS011;8578;50.938;13.556;2023-01-23T11:36:51;65.73;;;13.67;;
16922;SDS011;8578;50.938;13.556;2023-01-23T11:39:27;55.00;;;12.70;;
16922;SDS011;8578;50.938;13.556;2023-01-23T11:41:58;56.50;;;11.87;;
16922;SDS011;8578;50.938;13.556;2023-01-23T11:44:27;81.97;;;13.07;;
16922;SDS011;8578;50.938;13.556;2023-01-23T11:47:14;57.83;;;12.63;;
16922;SDS011;8578;50.938;13.556;2023-01-23T11:49:48;70.00;;;11.23;;
16922;SDS011;8578;50.938;13.556;2023-01-23T11:52:23;35.40;;;11.40;;
16922;SDS011;8578;50.938;13.556;2023-01-23T11:54:57;30.87;;;11.23;;
16922;SDS011;8578;50.938;13.556;2023-01-23T11:57:31;54.80;;;12.30;;
16922;SDS011;8578;50.938;13.556;2023-01-23T12:00:04;46.00;;;12.80;;
16922;SDS011;8578;50.938;13.556;2023-01-23T12:05:32;32.97;;;12.13;;
16922;SDS011;8578;50.938;13.556;2023-01-23T12:08:08;30.27;;;11.43;;
16922;SDS011;8578;50.938;13.556;2023-01-23T12:10:41;31.67;;;12.03;;
16922;SDS011;8578;50.938;13.556;2023-01-23T12:13:15;29.30;;;11.87;;
16922;SDS011;8578;50.938;13.556;2023-01-23T12:15:51;26.53;;;11.53;;
16922;SDS011;8578;50.938;13.556;2023-01-23T12:18:27;40.73;;;13.53;;
16922;SDS011;8578;50.938;13.556;2023-01-23T12:21:00;34.77;;;12.50;;
16922;SDS011;8578;50.938;13.556;2023-01-23T12:23:33;36.17;;;13.57;;
16922;SDS011;8578;50.938;13.556;2023-01-23T12:26:06;28.43;;;11.80;;
16922;SDS011;8578;50.938;13.556;2023-01-23T12:28:43;30.80;;;13.07;;
16922;SDS011;8578;50.938;13.556;2023-01-23T12:31:18;28.10;;;12.20;;
16922;SDS011;8578;50.938;13.556;2023-01-23T12:33:53;28.33;;;12.10;;
16922;SDS011;8578;50.938;13.556;2023-01-23T12:36:29;30.23;;;11.73;;
16922;SDS011;8578;50.938;13.556;2023-01-23T12:39:03;27.10;;;10.87;;
16922;SDS011;8578;50.938;13.556;2023-01-23T12:41:34;24.40;;;10.23;;
16922;SDS011;8578;50.938;13.556;2023-01-23T12:44:04;22.90;;;9.97;;
16922;SDS011;8578;50.938;13.556;2023-01-23T12:46:38;25.77;;;9.93;;
16922;SDS011;8578;50.938;13.556;2023-01-23T12:49:11;26.47;;;10.57;;
16922;SDS011;8578;50.938;13.556;2023-01-23T12:51:42;28.60;;;11.73;;
16922;SDS011;8578;50.938;13.556;2023-01-23T12:54:13;22.83;;;10.40;;
16922;SDS011;8578;50.938;13.556;2023-01-23T12:56:43;25.67;;;10.83;;
16922;SDS011;8578;50.938;13.556;2023-01-23T12:59:13;24.13;;;10.83;;
16922;SDS011;8578;50.938;13.556;2023-01-23T13:01:51;24.30;;;10.10;;
16922;SDS011;8578;50.938;13.556;2023-01-23T13:04:26;22.73;;;9.63;;
16922;SDS011;8578;50.938;13.556;2023-01-23T13:06:58;21.07;;;9.00;;
16922;SDS011;8578;50.938;13.556;2023-01-23T13:09:31;24.97;;;9.97;;
16922;SDS011;8578;50.938;13.556;2023-01-23T13:12:04;23.80;;;10.17;;
16922;SDS011;8578;50.938;13.556;2023-01-23T13:14:37;28.80;;;11.17;;
16922;SDS011;8578;50.938;13.556;2023-01-23T13:17:30;23.00;;;10.13;;
16922;SDS011;8578;50.938;13.556;2023-01-23T13:20:21;30.90;;;12.47;;
16922;SDS011;8578;50.938;13.556;2023-01-23T13:23:20;27.53;;;11.43;;
16922;SDS011;8578;50.938;13.556;2023-01-23T13:25:48;27.70;;;12.60;;
16922;SDS011;8578;50.938;13.556;2023-01-23T13:28:25;26.03;;;11.93;;
16922;SDS011;8578;50.938;13.556;2023-01-23T13:31:22;25.93;;;11.30;;
16922;SDS011;8578;50.938;13.556;2023-01-23T13:33:52;25.23;;;11.27;;
16922;SDS011;8578;50.938;13.556;2023-01-23T13:36:32;31.80;;;11.20;;
16922;SDS011;8578;50.938;13.556;2023-01-23T13:41:42;33.90;;;12.10;;
16922;SDS011;8578;50.938;13.556;2023-01-23T13:44:15;34.17;;;13.20;;
16922;SDS011;8578;50.938;13.556;2023-01-23T13:46:49;33.30;;;12.37;;
16922;SDS011;8578;50.938;13.556;2023-01-23T13:49:37;44.23;;;12.87;;
16922;SDS011;8578;50.938;13.556;2023-01-23T13:52:31;32.53;;;12.13;;
16922;SDS011;8578;50.938;13.556;2023-01-23T13:55:38;37.43;;;11.73;;
16922;SDS011;8578;50.938;13.556;2023-01-23T13:58:38;32.23;;;11.73;;
16922;SDS011;8578;50.938;13.556;2023-01-23T14:01:20;54.23;;;12.07;;
16922;SDS011;8578;50.938;13.556;2023-01-23T14:04:21;52.80;;;12.10;;
16922;SDS011;8578;50.938;13.556;2023-01-23T14:07:36;62.93;;;12.73;;
16922;SDS011;8578;50.938;13.556;2023-01-23T14:10:25;115.83;;;12.80;;
16922;SDS011;8578;50.938;13.556;2023-01-23T14:13:09;65.67;;;11.60;;
16922;SDS011;8578;50.938;13.556;2023-01-23T14:15:52;39.30;;;12.33;;
16922;SDS011;8578;50.938;13.556;2023-01-23T14:18:51;117.63;;;13.20;;
16922;SDS011;8578;50.938;13.556;2023-01-23T14:21:34;76.07;;;12.20;;
16922;SDS011;8578;50.938;13.556;2023-01-23T14:24:18;91.57;;;11.87;;
16922;SDS011;8578;50.938;13.556;2023-01-23T14:26:47;65.77;;;12.23;;
16922;SDS011;8578;50.938;13.556;2023-01-23T14:29:18;61.70;;;12.40;;
16922;SDS011;8578;50.938;13.556;2023-01-23T14:31:46;70.57;;;12.27;;
16922;SDS011;8578;50.938;13.556;2023-01-23T14:34:14;61.20;;;11.80;;
16922;SDS011;8578;50.938;13.556;2023-01-23T14:36:44;25.80;;;10.40;;
16922;SDS011;8578;50.938;13.556;2023-01-23T14:39:14;93.13;;;11.50;;
16922;SDS011;8578;50.938;13.556;2023-01-23T14:41:44;64.50;;;11.40;;
16922;SDS011;8578;50.938;13.556;2023-01-23T14:44:15;130.97;;;12.57;;
16922;SDS011;8578;50.938;13.556;2023-01-23T14:46:44;90.03;;;12.40;;
16922;SDS011;8578;50.938;13.556;2023-01-23T14:49:12;91.23;;;13.30;;
16922;SDS011;8578;50.938;13.556;2023-01-23T14:51:48;54.00;;;12.50;;
16922;SDS011;8578;50.938;13.556;2023-01-23T14:54:20;78.10;;;12.33;;
16922;SDS011;8578;50.938;13.556;2023-01-23T14:56:50;90.33;;;11.80;;
16922;SDS011;8578;50.938;13.556;2023-01-23T14:59:20;59.23;;;12.33;;